sensor_id;sensor_type;location;lat;lon;timestamp;P1;durP1;ratioP1;P2;durP2;ratioP2
6223;SDS011;3145;42.726;23.342;2024-02-26T00:01:45;62.67;;;38.43;;
6223;SDS011;3145;42.726;23.342;2024-02-26T00:04:13;65.43;;;39.30;;
6223;SDS011;3145;42.726;23.342;2024-02-26T00:06:39;56.70;;;39.60;;
6223;SDS011;3145;42.726;23.342;2024-02-26T00:09:07;63.83;;;39.47;;
6223;SDS011;3145;42.726;23.342;2024-02-26T00:11:34;65.87;;;40.97;;
6223;SDS011;3145;42.726;23.342;2024-02-26T00:14:01;68.43;;;40.23;;
6223;SDS011;3145;42.726;23.342;2024-02-26T00:16:28;63.63;;;38.43;;
6223;SDS011;3145;42.726;23.342;2024-02-26T00:18:55;56.30;;;37.63;;
6223;SDS011;3145;42.726;23.342;2024-02-26T00:21:23;57.40;;;38.53;;
6223;SDS011;3145;42.726;23.342;2024-02-26T00:23:50;62.93;;;40.17;;
6223;SDS011;3145;42.726;23.342;2024-02-26T00:26:16;59.63;;;37.17;;
6223;SDS011;3145;42.726;23.342;2024-02-26T00:28:43;61.40;;;38.40;;
6223;SDS011;3145;42.726;23.342;2024-02-26T00:31:10;59.83;;;38.63;;
6223;SDS011;3145;42.726;23.342;2024-02-26T00:33:36;61.07;;;39.23;;
6223;SDS011;3145;42.726;23.342;2024-02-26T00:36:03;62.30;;;39.47;;
6223;SDS011;3145;42.726;23.342;2024-02-26T00:38:32;62.77;;;40.23;;
6223;SDS011;3145;42.726;23.342;2024-02-26T00:40:59;53.93;;;36.23;;
6223;SDS011;3145;42.726;23.342;2024-02-26T00:43:25;61.33;;;37.37;;
6223;SDS011;3145;42.726;23.342;2024-02-26T00:45:52;55.03;;;36.07;;
6223;SDS011;3145;42.726;23.342;2024-02-26T00:48:19;61.40;;;37.30;;
6223;SDS011;3145;42.726;23.342;2024-02-26T00:50:45;55.03;;;37.00;;
6223;SDS011;3145;42.726;23.342;2024-02-26T00:53:12;57.87;;;39.10;;
6223;SDS011;3145;42.726;23.342;2024-02-26T00:55:40;57.83;;;37.40;;
6223;SDS011;3145;42.726;23.342;2024-02-26T00:58:07;54.00;;;36.07;;
6223;SDS011;3145;42.726;23.342;2024-02-26T01:00:33;51.00;;;36.93;;
6223;SDS011;3145;42.726;23.342;2024-02-26T01:03:00;53.43;;;35.17;;
6223;SDS011;3145;42.726;23.342;2024-02-26T01:05:28;53.33;;;36.93;;
6223;SDS011;3145;42.726;23.342;2024-02-26T01:07:55;65.50;;;39.90;;
6223;SDS011;3145;42.726;23.342;2024-02-26T01:10:21;65.13;;;39.83;;
6223;SDS011;3145;42.726;23.342;2024-02-26T01:12:49;65.37;;;42.73;;
6223;SDS011;3145;42.726;23.342;2024-02-26T01:15:16;67.90;;;42.13;;
6223;SDS011;3145;42.726;23.342;2024-02-26T01:17:44;61.10;;;40.03;;
6223;SDS011;3145;42.726;23.342;2024-02-26T01:20:10;64.40;;;40.00;;
6223;SDS011;3145;42.726;23.342;2024-02-26T01:22:37;60.73;;;39.00;;
6223;SDS011;3145;42.726;23.342;2024-02-26T01:25:06;50.43;;;34.83;;
6223;SDS011;3145;42.726;23.342;2024-02-26T01:27:34;47.57;;;31.53;;
6223;SDS011;3145;42.726;23.342;2024-02-26T01:30:02;52.00;;;33.33;;
6223;SDS011;3145;42.726;23.342;2024-02-26T01:32:30;61.00;;;35.57;;
6223;SDS011;3145;42.726;23.342;2024-02-26T01:34:56;49.63;;;32.87;;
6223;SDS011;3145;42.726;23.342;2024-02-26T01:37:23;49.07;;;31.57;;
6223;SDS011;3145;42.726;23.342;2024-02-26T01:39:50;47.67;;;31.67;;
6223;SDS011;3145;42.726;23.342;2024-02-26T01:42:17;50.07;;;32.93;;
6223;SDS011;3145;42.726;23.342;2024-02-26T01:44:44;52.17;;;32.07;;
6223;SDS011;3145;42.726;23.342;2024-02-26T01:47:12;45.70;;;32.37;;
6223;SDS011;3145;42.726;23.342;2024-02-26T01:49:39;52.67;;;32.80;;
6223;SDS011;3145;42.726;23.342;2024-02-26T01:52:07;50.77;;;32.27;;
6223;SDS011;3145;42.726;23.342;2024-02-26T01:54:36;48.83;;;31.93;;
6223;SDS011;3145;42.726;23.342;2024-02-26T01:57:04;49.03;;;32.10;;
6223;SDS011;3145;42.726;23.342;2024-02-26T01:59:32;44.90;;;30.97;;
6223;SDS011;3145;42.726;23.342;2024-02-26T02:02:01;45.33;;;32.03;;
6223;SDS011;3145;42.726;23.342;2024-02-26T02:04:30;46.33;;;31.63;;
6223;SDS011;3145;42.726;23.342;2024-02-26T02:06:57;45.93;;;31.70;;
6223;SDS011;3145;42.726;23.342;2024-02-26T02:09:26;43.93;;;29.57;;
6223;SDS011;3145;42.726;23.342;2024-02-26T02:11:53;44.57;;;31.90;;
6223;SDS011;3145;42.726;23.342;2024-02-26T02:14:21;46.27;;;31.23;;
6223;SDS011;3145;42.726;23.342;2024-02-26T02:16:47;47.33;;;32.93;;
6223;SDS011;3145;42.726;23.342;2024-02-26T02:19:14;42.77;;;32.20;;
6223;SDS011;3145;42.726;23.342;2024-02-26T02:21:42;44.70;;;31.47;;
6223;SDS011;3145;42.726;23.342;2024-02-26T02:24:09;47.80;;;32.20;;
6223;SDS011;3145;42.726;23.342;2024-02-26T02:26:35;53.90;;;30.90;;
6223;SDS011;3145;42.726;23.342;2024-02-26T02:29:03;48.23;;;30.63;;
6223;SDS011;3145;42.726;23.342;2024-02-26T02:31:29;45.73;;;30.77;;
6223;SDS011;3145;42.726;23.342;2024-02-26T02:33:56;43.30;;;29.83;;
6223;SDS011;3145;42.726;23.342;2024-02-26T02:36:24;46.47;;;30.30;;
6223;SDS011;3145;42.726;23.342;2024-02-26T02:38:52;45.90;;;31.27;;
6223;SDS011;3145;42.726;23.342;2024-02-26T02:41:18;44.00;;;30.80;;
6223;SDS011;3145;42.726;23.342;2024-02-26T02:43:46;49.10;;;30.83;;
6223;SDS011;3145;42.726;23.342;2024-02-26T02:46:12;42.37;;;30.30;;
6223;SDS011;3145;42.726;23.342;2024-02-26T02:48:39;41.10;;;29.63;;
6223;SDS011;3145;42.726;23.342;2024-02-26T02:51:07;41.73;;;29.60;;
6223;SDS011;3145;42.726;23.342;2024-02-26T02:53:35;48.67;;;30.83;;
6223;SDS011;3145;42.726;23.342;2024-02-26T02:56:03;40.60;;;29.20;;
6223;SDS011;3145;42.726;23.342;2024-02-26T02:58:30;45.20;;;30.77;;
6223;SDS011;3145;42.726;23.342;2024-02-26T03:00:57;67.47;;;39.53;;
6223;SDS011;3145;42.726;23.342;2024-02-26T03:03:25;44.43;;;30.37;;
6223;SDS011;3145;42.726;23.342;2024-02-26T03:05:53;57.17;;;35.23;;
6223;SDS011;3145;42.726;23.342;2024-02-26T03:08:20;46.67;;;32.03;;
6223;SDS011;3145;42.726;23.342;2024-02-26T03:10:47;42.77;;;30.17;;
6223;SDS011;3145;42.726;23.342;2024-02-26T03:13:15;45.23;;;31.00;;
6223;SDS011;3145;42.726;23.342;2024-02-26T03:15:42;46.27;;;30.50;;
6223;SDS011;3145;42.726;23.342;2024-02-26T03:18:08;46.03;;;30.43;;
6223;SDS011;3145;42.726;23.342;2024-02-26T03:20:35;45.07;;;31.37;;
6223;SDS011;3145;42.726;23.342;2024-02-26T03:23:02;40.20;;;28.90;;
6223;SDS011;3145;42.726;23.342;2024-02-26T03:25:29;44.13;;;31.23;;
6223;SDS011;3145;42.726;23.342;2024-02-26T03:27:56;50.60;;;35.60;;
6223;SDS011;3145;42.726;23.342;2024-02-26T03:30:24;44.83;;;31.60;;
6223;SDS011;3145;42.726;23.342;2024-02-26T03:32:51;45.43;;;31.67;;
6223;SDS011;3145;42.726;23.342;2024-02-26T03:35:17;47.23;;;33.10;;
6223;SDS011;3145;42.726;23.342;2024-02-26T03:37:45;60.43;;;37.23;;
6223;SDS011;3145;42.726;23.342;2024-02-26T03:40:12;60.93;;;38.60;;
6223;SDS011;3145;42.726;23.342;2024-02-26T03:42:40;69.80;;;45.33;;
6223;SDS011;3145;42.726;23.342;2024-02-26T03:45:07;82.17;;;51.37;;
6223;SDS011;3145;42.726;23.342;2024-02-26T03:47:37;83.37;;;51.37;;
6223;SDS011;3145;42.726;23.342;2024-02-26T03:50:05;67.83;;;43.30;;
6223;SDS011;3145;42.726;23.342;2024-02-26T03:52:33;57.53;;;38.10;;
6223;SDS011;3145;42.726;23.342;2024-02-26T03:55:00;56.40;;;37.57;;
6223;SDS011;3145;42.726;23.342;2024-02-26T03:57:26;59.33;;;41.37;;
6223;SDS011;3145;42.726;23.342;2024-02-26T03:59:53;62.70;;;41.40;;
6223;SDS011;3145;42.726;23.342;2024-02-26T04:02:19;54.40;;;41.93;;
6223;SDS011;3145;42.726;23.342;2024-02-26T04:04:49;52.40;;;35.23;;
6223;SDS011;3145;42.726;23.342;2024-02-26T04:07:16;51.43;;;32.90;;
6223;SDS011;3145;42.726;23.342;2024-02-26T04:09:42;43.33;;;31.33;;
6223;SDS011;3145;42.726;23.342;2024-02-26T04:12:09;45.33;;;30.70;;
6223;SDS011;3145;42.726;23.342;2024-02-26T04:14:36;40.00;;;29.40;;
6223;SDS011;3145;42.726;23.342;2024-02-26T04:17:03;46.97;;;29.60;;
6223;SDS011;3145;42.726;23.342;2024-02-26T04:19:29;42.57;;;28.63;;
6223;SDS011;3145;42.726;23.342;2024-02-26T04:21:57;41.53;;;28.07;;
6223;SDS011;3145;42.726;23.342;2024-02-26T04:24:24;46.70;;;30.30;;
6223;SDS011;3145;42.726;23.342;2024-02-26T04:26:51;45.20;;;29.97;;
6223;SDS011;3145;42.726;23.342;2024-02-26T04:29:17;53.70;;;32.77;;
6223;SDS011;3145;42.726;23.342;2024-02-26T04:31:44;61.47;;;38.80;;
6223;SDS011;3145;42.726;23.342;2024-02-26T04:34:11;48.80;;;31.70;;
6223;SDS011;3145;42.726;23.342;2024-02-26T04:36:38;53.67;;;33.57;;
6223;SDS011;3145;42.726;23.342;2024-02-26T04:39:06;43.17;;;31.37;;
6223;SDS011;3145;42.726;23.342;2024-02-26T04:41:33;47.00;;;31.13;;
6223;SDS011;3145;42.726;23.342;2024-02-26T04:43:59;40.17;;;28.83;;
6223;SDS011;3145;42.726;23.342;2024-02-26T04:46:27;43.07;;;31.10;;
6223;SDS011;3145;42.726;23.342;2024-02-26T04:48:53;45.23;;;30.37;;
6223;SDS011;3145;42.726;23.342;2024-02-26T04:51:20;46.03;;;30.33;;
6223;SDS011;3145;42.726;23.342;2024-02-26T04:53:47;42.07;;;31.27;;
6223;SDS011;3145;42.726;23.342;2024-02-26T04:56:15;42.07;;;29.83;;
6223;SDS011;3145;42.726;23.342;2024-02-26T04:58:41;45.10;;;31.00;;
6223;SDS011;3145;42.726;23.342;2024-02-26T05:01:08;44.93;;;31.40;;
6223;SDS011;3145;42.726;23.342;2024-02-26T05:03:36;44.20;;;31.87;;
6223;SDS011;3145;42.726;23.342;2024-02-26T05:06:03;54.17;;;34.33;;
6223;SDS011;3145;42.726;23.342;2024-02-26T05:08:31;50.27;;;33.17;;
6223;SDS011;3145;42.726;23.342;2024-02-26T05:10:58;49.90;;;32.77;;
6223;SDS011;3145;42.726;23.342;2024-02-26T05:13:29;45.07;;;30.70;;
6223;SDS011;3145;42.726;23.342;2024-02-26T05:15:55;47.20;;;30.63;;
6223;SDS011;3145;42.726;23.342;2024-02-26T05:18:22;41.07;;;29.93;;
6223;SDS011;3145;42.726;23.342;2024-02-26T05:20:49;44.50;;;30.27;;
6223;SDS011;3145;42.726;23.342;2024-02-26T05:23:15;44.23;;;30.07;;
6223;SDS011;3145;42.726;23.342;2024-02-26T05:25:42;47.37;;;28.90;;
6223;SDS011;3145;42.726;23.342;2024-02-26T05:28:10;43.73;;;29.27;;
6223;SDS011;3145;42.726;23.342;2024-02-26T05:30:38;45.07;;;30.73;;
6223;SDS011;3145;42.726;23.342;2024-02-26T05:33:05;49.67;;;35.00;;
6223;SDS011;3145;42.726;23.342;2024-02-26T05:35:32;55.33;;;36.87;;
6223;SDS011;3145;42.726;23.342;2024-02-26T05:37:59;51.70;;;37.00;;
6223;SDS011;3145;42.726;23.342;2024-02-26T05:40:25;57.33;;;38.43;;
6223;SDS011;3145;42.726;23.342;2024-02-26T05:42:52;51.50;;;39.47;;
6223;SDS011;3145;42.726;23.342;2024-02-26T05:45:19;51.37;;;35.93;;
6223;SDS011;3145;42.726;23.342;2024-02-26T05:47:48;55.67;;;37.67;;
6223;SDS011;3145;42.726;23.342;2024-02-26T05:50:15;54.10;;;37.37;;
6223;SDS011;3145;42.726;23.342;2024-02-26T05:52:42;58.80;;;39.20;;
6223;SDS011;3145;42.726;23.342;2024-02-26T05:55:09;55.00;;;36.37;;
6223;SDS011;3145;42.726;23.342;2024-02-26T05:57:34;56.20;;;38.60;;
6223;SDS011;3145;42.726;23.342;2024-02-26T06:00:02;49.77;;;36.67;;
6223;SDS011;3145;42.726;23.342;2024-02-26T06:02:29;57.33;;;38.37;;
6223;SDS011;3145;42.726;23.342;2024-02-26T06:04:57;60.70;;;39.93;;
6223;SDS011;3145;42.726;23.342;2024-02-26T06:07:24;68.20;;;44.83;;
6223;SDS011;3145;42.726;23.342;2024-02-26T06:09:51;64.43;;;44.20;;
6223;SDS011;3145;42.726;23.342;2024-02-26T06:12:17;80.07;;;50.63;;
6223;SDS011;3145;42.726;23.342;2024-02-26T06:14:44;66.33;;;42.40;;
6223;SDS011;3145;42.726;23.342;2024-02-26T06:17:11;74.97;;;49.33;;
6223;SDS011;3145;42.726;23.342;2024-02-26T06:19:37;76.00;;;48.83;;
6223;SDS011;3145;42.726;23.342;2024-02-26T06:22:05;74.33;;;49.37;;
6223;SDS011;3145;42.726;23.342;2024-02-26T06:24:32;84.03;;;51.83;;
6223;SDS011;3145;42.726;23.342;2024-02-26T06:26:59;82.67;;;49.10;;
6223;SDS011;3145;42.726;23.342;2024-02-26T06:29:26;74.07;;;49.00;;
6223;SDS011;3145;42.726;23.342;2024-02-26T06:31:52;79.17;;;46.90;;
6223;SDS011;3145;42.726;23.342;2024-02-26T06:34:19;76.70;;;46.43;;
6223;SDS011;3145;42.726;23.342;2024-02-26T06:36:46;72.20;;;45.60;;
6223;SDS011;3145;42.726;23.342;2024-02-26T06:39:14;80.13;;;51.90;;
6223;SDS011;3145;42.726;23.342;2024-02-26T06:41:41;70.53;;;48.47;;
6223;SDS011;3145;42.726;23.342;2024-02-26T06:44:07;75.47;;;45.23;;
6223;SDS011;3145;42.726;23.342;2024-02-26T06:46:34;65.50;;;42.67;;
6223;SDS011;3145;42.726;23.342;2024-02-26T06:49:01;65.07;;;44.80;;
6223;SDS011;3145;42.726;23.342;2024-02-26T06:51:27;61.40;;;42.97;;
6223;SDS011;3145;42.726;23.342;2024-02-26T06:53:54;66.83;;;43.60;;
6223;SDS011;3145;42.726;23.342;2024-02-26T06:56:22;59.80;;;38.90;;
6223;SDS011;3145;42.726;23.342;2024-02-26T06:58:49;56.20;;;36.93;;
6223;SDS011;3145;42.726;23.342;2024-02-26T07:01:15;59.53;;;38.43;;
6223;SDS011;3145;42.726;23.342;2024-02-26T07:03:42;59.30;;;40.57;;
6223;SDS011;3145;42.726;23.342;2024-02-26T07:06:09;69.20;;;44.57;;
6223;SDS011;3145;42.726;23.342;2024-02-26T07:08:37;82.87;;;49.07;;
6223;SDS011;3145;42.726;23.342;2024-02-26T07:11:06;65.70;;;41.50;;
6223;SDS011;3145;42.726;23.342;2024-02-26T07:13:35;66.77;;;41.50;;
6223;SDS011;3145;42.726;23.342;2024-02-26T07:16:02;61.03;;;40.73;;
6223;SDS011;3145;42.726;23.342;2024-02-26T07:18:29;65.90;;;41.67;;
6223;SDS011;3145;42.726;23.342;2024-02-26T07:20:55;62.27;;;38.87;;
6223;SDS011;3145;42.726;23.342;2024-02-26T07:23:22;57.50;;;39.80;;
6223;SDS011;3145;42.726;23.342;2024-02-26T07:25:48;59.57;;;38.53;;
6223;SDS011;3145;42.726;23.342;2024-02-26T07:28:17;48.23;;;34.47;;
6223;SDS011;3145;42.726;23.342;2024-02-26T07:30:46;56.20;;;32.60;;
6223;SDS011;3145;42.726;23.342;2024-02-26T07:33:12;46.47;;;31.73;;
6223;SDS011;3145;42.726;23.342;2024-02-26T07:35:39;45.80;;;32.53;;
6223;SDS011;3145;42.726;23.342;2024-02-26T07:38:06;48.63;;;34.80;;
6223;SDS011;3145;42.726;23.342;2024-02-26T07:40:33;52.30;;;35.33;;
6223;SDS011;3145;42.726;23.342;2024-02-26T07:42:59;50.50;;;34.17;;
6223;SDS011;3145;42.726;23.342;2024-02-26T07:45:26;49.10;;;34.70;;
6223;SDS011;3145;42.726;23.342;2024-02-26T07:47:54;52.87;;;36.07;;
6223;SDS011;3145;42.726;23.342;2024-02-26T07:50:21;53.90;;;35.60;;
6223;SDS011;3145;42.726;23.342;2024-02-26T07:52:47;48.97;;;36.07;;
6223;SDS011;3145;42.726;23.342;2024-02-26T07:55:16;46.03;;;32.93;;
6223;SDS011;3145;42.726;23.342;2024-02-26T07:57:42;48.13;;;32.60;;
6223;SDS011;3145;42.726;23.342;2024-02-26T08:00:10;48.97;;;33.30;;
6223;SDS011;3145;42.726;23.342;2024-02-26T08:02:37;53.47;;;35.37;;
6223;SDS011;3145;42.726;23.342;2024-02-26T08:05:05;43.93;;;32.53;;
6223;SDS011;3145;42.726;23.342;2024-02-26T08:07:32;53.37;;;34.77;;
6223;SDS011;3145;42.726;23.342;2024-02-26T08:09:59;54.63;;;34.70;;
6223;SDS011;3145;42.726;23.342;2024-02-26T08:12:26;45.97;;;33.60;;
6223;SDS011;3145;42.726;23.342;2024-02-26T08:14:52;52.97;;;35.00;;
6223;SDS011;3145;42.726;23.342;2024-02-26T08:17:19;53.33;;;35.43;;
6223;SDS011;3145;42.726;23.342;2024-02-26T08:19:45;45.60;;;33.77;;
6223;SDS011;3145;42.726;23.342;2024-02-26T08:22:14;48.70;;;36.93;;
6223;SDS011;3145;42.726;23.342;2024-02-26T08:24:41;53.47;;;35.57;;
6223;SDS011;3145;42.726;23.342;2024-02-26T08:27:07;50.37;;;34.10;;
6223;SDS011;3145;42.726;23.342;2024-02-26T08:29:34;54.47;;;35.60;;
6223;SDS011;3145;42.726;23.342;2024-02-26T08:32:01;47.80;;;34.53;;
6223;SDS011;3145;42.726;23.342;2024-02-26T08:34:28;47.87;;;33.20;;
6223;SDS011;3145;42.726;23.342;2024-02-26T08:36:55;48.17;;;34.60;;
6223;SDS011;3145;42.726;23.342;2024-02-26T08:39:23;48.27;;;33.17;;
6223;SDS011;3145;42.726;23.342;2024-02-26T08:41:50;46.60;;;33.03;;
6223;SDS011;3145;42.726;23.342;2024-02-26T08:44:17;46.33;;;32.27;;
6223;SDS011;3145;42.726;23.342;2024-02-26T08:46:44;52.50;;;34.97;;
6223;SDS011;3145;42.726;23.342;2024-02-26T08:49:11;60.43;;;36.30;;
6223;SDS011;3145;42.726;23.342;2024-02-26T08:51:41;50.03;;;33.20;;
6223;SDS011;3145;42.726;23.342;2024-02-26T08:54:08;44.50;;;30.50;;
6223;SDS011;3145;42.726;23.342;2024-02-26T08:56:36;46.20;;;31.37;;
6223;SDS011;3145;42.726;23.342;2024-02-26T08:59:02;42.93;;;31.57;;
6223;SDS011;3145;42.726;23.342;2024-02-26T09:01:29;50.30;;;32.70;;
6223;SDS011;3145;42.726;23.342;2024-02-26T09:03:56;42.97;;;30.03;;
6223;SDS011;3145;42.726;23.342;2024-02-26T09:06:22;52.93;;;32.93;;
6223;SDS011;3145;42.726;23.342;2024-02-26T09:08:49;45.30;;;28.03;;
6223;SDS011;3145;42.726;23.342;2024-02-26T09:11:16;43.03;;;27.30;;
6223;SDS011;3145;42.726;23.342;2024-02-26T09:13:44;42.77;;;27.17;;
6223;SDS011;3145;42.726;23.342;2024-02-26T09:16:11;37.13;;;24.53;;
6223;SDS011;3145;42.726;23.342;2024-02-26T09:18:38;36.80;;;24.80;;
6223;SDS011;3145;42.726;23.342;2024-02-26T09:21:05;30.60;;;22.40;;
6223;SDS011;3145;42.726;23.342;2024-02-26T09:23:32;37.57;;;23.47;;
6223;SDS011;3145;42.726;23.342;2024-02-26T09:26:00;34.77;;;22.00;;
6223;SDS011;3145;42.726;23.342;2024-02-26T09:28:27;32.27;;;20.63;;
6223;SDS011;3145;42.726;23.342;2024-02-26T09:30:57;29.00;;;19.73;;
6223;SDS011;3145;42.726;23.342;2024-02-26T09:33:24;22.13;;;15.80;;
6223;SDS011;3145;42.726;23.342;2024-02-26T09:35:51;23.63;;;14.37;;
6223;SDS011;3145;42.726;23.342;2024-02-26T09:38:18;25.27;;;15.43;;
6223;SDS011;3145;42.726;23.342;2024-02-26T09:40:44;15.83;;;12.30;;
6223;SDS011;3145;42.726;23.342;2024-02-26T09:43:12;10.03;;;7.80;;
6223;SDS011;3145;42.726;23.342;2024-02-26T09:45:42;19.23;;;12.13;;
6223;SDS011;3145;42.726;23.342;2024-02-26T09:48:10;14.03;;;9.73;;
6223;SDS011;3145;42.726;23.342;2024-02-26T09:50:39;17.13;;;9.17;;
6223;SDS011;3145;42.726;23.342;2024-02-26T09:53:07;19.33;;;13.13;;
6223;SDS011;3145;42.726;23.342;2024-02-26T09:55:35;11.00;;;9.83;;
6223;SDS011;3145;42.726;23.342;2024-02-26T09:58:02;16.73;;;10.57;;
6223;SDS011;3145;42.726;23.342;2024-02-26T10:00:31;11.47;;;9.57;;
6223;SDS011;3145;42.726;23.342;2024-02-26T10:02:59;9.53;;;7.43;;
6223;SDS011;3145;42.726;23.342;2024-02-26T10:05:32;14.97;;;10.83;;
6223;SDS011;3145;42.726;23.342;2024-02-26T10:08:00;14.20;;;11.07;;
6223;SDS011;3145;42.726;23.342;2024-02-26T10:10:28;19.93;;;13.43;;
6223;SDS011;3145;42.726;23.342;2024-02-26T10:12:56;10.13;;;8.60;;
6223;SDS011;3145;42.726;23.342;2024-02-26T10:15:24;13.13;;;8.10;;
6223;SDS011;3145;42.726;23.342;2024-02-26T10:17:51;14.50;;;11.30;;
6223;SDS011;3145;42.726;23.342;2024-02-26T10:20:18;16.37;;;10.53;;
6223;SDS011;3145;42.726;23.342;2024-02-26T10:22:48;15.30;;;9.13;;
6223;SDS011;3145;42.726;23.342;2024-02-26T10:25:15;9.57;;;8.67;;
6223;SDS011;3145;42.726;23.342;2024-02-26T10:27:42;7.03;;;6.43;;
6223;SDS011;3145;42.726;23.342;2024-02-26T10:30:18;8.03;;;7.33;;
6223;SDS011;3145;42.726;23.342;2024-02-26T10:32:48;10.47;;;8.83;;
6223;SDS011;3145;42.726;23.342;2024-02-26T10:35:15;14.97;;;8.20;;
6223;SDS011;3145;42.726;23.342;2024-02-26T10:37:43;9.63;;;8.67;;
6223;SDS011;3145;42.726;23.342;2024-02-26T10:40:12;9.93;;;8.27;;
6223;SDS011;3145;42.726;23.342;2024-02-26T10:42:39;8.17;;;7.33;;
6223;SDS011;3145;42.726;23.342;2024-02-26T10:45:06;9.40;;;7.07;;
6223;SDS011;3145;42.726;23.342;2024-02-26T10:47:34;9.57;;;8.10;;
6223;SDS011;3145;42.726;23.342;2024-02-26T10:50:02;6.63;;;6.03;;
6223;SDS011;3145;42.726;23.342;2024-02-26T10:52:30;9.40;;;7.73;;
6223;SDS011;3145;42.726;23.342;2024-02-26T10:55:00;8.83;;;8.10;;
6223;SDS011;3145;42.726;23.342;2024-02-26T10:57:31;14.17;;;9.70;;
6223;SDS011;3145;42.726;23.342;2024-02-26T11:00:00;9.33;;;7.13;;
6223;SDS011;3145;42.726;23.342;2024-02-26T11:02:29;14.03;;;9.60;;
6223;SDS011;3145;42.726;23.342;2024-02-26T11:04:58;12.30;;;8.93;;
6223;SDS011;3145;42.726;23.342;2024-02-26T11:07:28;9.40;;;7.87;;
6223;SDS011;3145;42.726;23.342;2024-02-26T11:09:57;9.93;;;8.90;;
6223;SDS011;3145;42.726;23.342;2024-02-26T11:12:25;12.77;;;8.20;;
6223;SDS011;3145;42.726;23.342;2024-02-26T11:14:55;17.47;;;10.63;;
6223;SDS011;3145;42.726;23.342;2024-02-26T11:17:23;20.50;;;12.37;;
6223;SDS011;3145;42.726;23.342;2024-02-26T11:19:54;10.63;;;9.27;;
6223;SDS011;3145;42.726;23.342;2024-02-26T11:22:22;10.47;;;8.80;;
6223;SDS011;3145;42.726;23.342;2024-02-26T11:24:51;14.50;;;8.57;;
6223;SDS011;3145;42.726;23.342;2024-02-26T11:27:19;12.17;;;8.53;;
6223;SDS011;3145;42.726;23.342;2024-02-26T11:29:50;7.53;;;5.97;;
6223;SDS011;3145;42.726;23.342;2024-02-26T11:32:20;8.83;;;8.03;;
6223;SDS011;3145;42.726;23.342;2024-02-26T11:34:47;8.30;;;6.70;;
6223;SDS011;3145;42.726;23.342;2024-02-26T11:37:15;7.27;;;6.57;;
6223;SDS011;3145;42.726;23.342;2024-02-26T11:39:44;6.87;;;5.73;;
6223;SDS011;3145;42.726;23.342;2024-02-26T11:42:13;11.13;;;9.83;;
6223;SDS011;3145;42.726;23.342;2024-02-26T11:44:41;7.13;;;6.03;;
6223;SDS011;3145;42.726;23.342;2024-02-26T11:47:11;9.23;;;7.43;;
6223;SDS011;3145;42.726;23.342;2024-02-26T11:49:39;7.97;;;6.70;;
6223;SDS011;3145;42.726;23.342;2024-02-26T11:52:07;7.17;;;6.57;;
6223;SDS011;3145;42.726;23.342;2024-02-26T11:54:45;9.70;;;6.77;;
6223;SDS011;3145;42.726;23.342;2024-02-26T11:57:20;9.63;;;6.90;;
6223;SDS011;3145;42.726;23.342;2024-02-26T11:59:51;8.03;;;6.10;;
6223;SDS011;3145;42.726;23.342;2024-02-26T12:02:37;6.30;;;5.80;;
6223;SDS011;3145;42.726;23.342;2024-02-26T12:05:07;8.60;;;7.73;;
6223;SDS011;3145;42.726;23.342;2024-02-26T12:07:39;11.30;;;7.33;;
6223;SDS011;3145;42.726;23.342;2024-02-26T12:13:00;9.10;;;7.90;;
6223;SDS011;3145;42.726;23.342;2024-02-26T12:15:32;10.63;;;8.77;;
6223;SDS011;3145;42.726;23.342;2024-02-26T12:18:00;11.60;;;9.83;;
6223;SDS011;3145;42.726;23.342;2024-02-26T12:20:30;12.40;;;9.33;;
6223;SDS011;3145;42.726;23.342;2024-02-26T12:22:57;11.77;;;8.83;;
6223;SDS011;3145;42.726;23.342;2024-02-26T12:25:24;13.57;;;9.43;;
6223;SDS011;3145;42.726;23.342;2024-02-26T12:27:52;12.83;;;7.20;;
6223;SDS011;3145;42.726;23.342;2024-02-26T12:30:19;7.50;;;6.80;;
6223;SDS011;3145;42.726;23.342;2024-02-26T12:32:46;10.00;;;7.20;;
6223;SDS011;3145;42.726;23.342;2024-02-26T12:35:14;10.03;;;7.73;;
6223;SDS011;3145;42.726;23.342;2024-02-26T12:37:43;11.20;;;7.90;;
6223;SDS011;3145;42.726;23.342;2024-02-26T12:40:11;10.47;;;6.63;;
6223;SDS011;3145;42.726;23.342;2024-02-26T12:42:38;15.10;;;8.83;;
6223;SDS011;3145;42.726;23.342;2024-02-26T12:45:05;10.30;;;8.80;;
6223;SDS011;3145;42.726;23.342;2024-02-26T12:47:35;13.23;;;7.87;;
6223;SDS011;3145;42.726;23.342;2024-02-26T12:50:03;12.43;;;8.03;;
6223;SDS011;3145;42.726;23.342;2024-02-26T12:52:30;13.47;;;7.70;;
6223;SDS011;3145;42.726;23.342;2024-02-26T12:54:59;6.77;;;6.17;;
6223;SDS011;3145;42.726;23.342;2024-02-26T12:57:27;8.17;;;7.13;;
6223;SDS011;3145;42.726;23.342;2024-02-26T12:59:55;14.37;;;9.63;;
6223;SDS011;3145;42.726;23.342;2024-02-26T13:02:22;5.07;;;4.63;;
6223;SDS011;3145;42.726;23.342;2024-02-26T13:04:49;9.57;;;7.27;;
6223;SDS011;3145;42.726;23.342;2024-02-26T13:07:16;7.63;;;6.40;;
6223;SDS011;3145;42.726;23.342;2024-02-26T13:09:43;10.37;;;6.10;;
6223;SDS011;3145;42.726;23.342;2024-02-26T13:12:11;8.00;;;6.80;;
6223;SDS011;3145;42.726;23.342;2024-02-26T13:14:39;5.70;;;5.20;;
6223;SDS011;3145;42.726;23.342;2024-02-26T13:17:06;8.40;;;5.13;;
6223;SDS011;3145;42.726;23.342;2024-02-26T13:19:32;6.53;;;4.83;;
6223;SDS011;3145;42.726;23.342;2024-02-26T13:22:03;7.97;;;5.20;;
6223;SDS011;3145;42.726;23.342;2024-02-26T13:24:31;7.40;;;6.23;;
6223;SDS011;3145;42.726;23.342;2024-02-26T13:26:58;8.53;;;5.90;;
6223;SDS011;3145;42.726;23.342;2024-02-26T13:29:27;7.13;;;6.33;;
6223;SDS011;3145;42.726;23.342;2024-02-26T13:31:53;6.93;;;5.90;;
6223;SDS011;3145;42.726;23.342;2024-02-26T13:34:25;7.07;;;6.40;;
6223;SDS011;3145;42.726;23.342;2024-02-26T13:36:52;11.67;;;6.27;;
6223;SDS011;3145;42.726;23.342;2024-02-26T13:39:23;8.03;;;6.17;;
6223;SDS011;3145;42.726;23.342;2024-02-26T13:41:50;5.83;;;5.33;;
6223;SDS011;3145;42.726;23.342;2024-02-26T13:44:18;6.50;;;5.90;;
6223;SDS011;3145;42.726;23.342;2024-02-26T13:46:47;5.00;;;4.60;;
6223;SDS011;3145;42.726;23.342;2024-02-26T13:49:14;10.03;;;6.97;;
6223;SDS011;3145;42.726;23.342;2024-02-26T13:51:41;11.73;;;8.37;;
6223;SDS011;3145;42.726;23.342;2024-02-26T13:54:08;14.90;;;8.93;;
6223;SDS011;3145;42.726;23.342;2024-02-26T13:56:35;9.97;;;7.13;;
6223;SDS011;3145;42.726;23.342;2024-02-26T13:59:02;7.70;;;6.53;;
6223;SDS011;3145;42.726;23.342;2024-02-26T14:01:29;10.93;;;7.53;;
6223;SDS011;3145;42.726;23.342;2024-02-26T14:03:59;9.93;;;6.63;;
6223;SDS011;3145;42.726;23.342;2024-02-26T14:06:27;7.00;;;6.33;;
6223;SDS011;3145;42.726;23.342;2024-02-26T14:08:54;8.80;;;6.50;;
6223;SDS011;3145;42.726;23.342;2024-02-26T14:11:20;8.23;;;6.87;;
6223;SDS011;3145;42.726;23.342;2024-02-26T14:13:47;6.30;;;5.70;;
6223;SDS011;3145;42.726;23.342;2024-02-26T14:16:14;7.03;;;6.30;;
6223;SDS011;3145;42.726;23.342;2024-02-26T14:18:41;19.77;;;14.03;;
6223;SDS011;3145;42.726;23.342;2024-02-26T14:21:11;28.57;;;19.17;;
6223;SDS011;3145;42.726;23.342;2024-02-26T14:23:38;8.07;;;6.00;;
6223;SDS011;3145;42.726;23.342;2024-02-26T14:26:05;9.63;;;6.20;;
6223;SDS011;3145;42.726;23.342;2024-02-26T14:28:32;7.47;;;6.70;;
6223;SDS011;3145;42.726;23.342;2024-02-26T14:30:59;7.03;;;6.43;;
6223;SDS011;3145;42.726;23.342;2024-02-26T14:33:26;14.60;;;7.30;;
6223;SDS011;3145;42.726;23.342;2024-02-26T14:35:52;8.63;;;6.63;;
6223;SDS011;3145;42.726;23.342;2024-02-26T14:38:20;13.43;;;7.13;;
6223;SDS011;3145;42.726;23.342;2024-02-26T14:40:48;10.97;;;7.17;;
6223;SDS011;3145;42.726;23.342;2024-02-26T14:43:15;10.93;;;6.60;;
6223;SDS011;3145;42.726;23.342;2024-02-26T14:45:42;9.00;;;6.23;;